createdAt,value
2023-01-21T00:01:41.720Z,99455.94
2023-01-21T00:06:46.023Z,99456.91
2023-01-21T00:11:48.999Z,99455.25
2023-01-21T00:16:51.851Z,99456.06
2023-01-21T00:21:54.852Z,99445.72
2023-01-21T00:26:57.755Z,99463.91
2023-01-21T00:32:00.855Z,99463.16
2023-01-21T00:37:03.747Z,99445.16
2023-01-21T00:42:08.410Z,99458.69
2023-01-21T00:47:11.388Z,99460.47
2023-01-21T00:52:14.140Z,99467.34
2023-01-21T00:57:17.155Z,99461.28
2023-01-21T01:02:20.491Z,99463.78
2023-01-21T01:07:23.665Z,99462.97
2023-01-21T01:12:28.213Z,99464.63
2023-01-21T01:17:31.158Z,99475.19
2023-01-21T01:22:33.977Z,99465.56
2023-01-21T01:27:36.985Z,99467.34
2023-01-21T01:32:39.964Z,99470.09
2023-01-21T01:37:42.940Z,99472.44
2023-01-21T01:42:46.104Z,99471.38
2023-01-21T01:47:59.944Z,99472.09
2023-01-21T01:53:03.658Z,99463.44
2023-01-21T01:58:13.325Z,99455.59
2023-01-21T02:03:36.783Z,99451.91
2023-01-21T02:08:41.363Z,99446.47
2023-01-21T02:13:57.898Z,99435.41
2023-01-21T02:19:28.417Z,99445.41
2023-01-21T02:24:49.928Z,99453.94
2023-01-21T02:30:11.681Z,99451.22
2023-01-21T02:35:34.484Z,99451.94
2023-01-21T02:40:58.549Z,99457.03
2023-01-21T02:46:24.584Z,99454.41
2023-01-21T02:51:27.741Z,99463.91
2023-01-21T02:56:30.762Z,99462.16
2023-01-21T03:02:03.120Z,99468.91
2023-01-21T03:07:38.457Z,99467.00
2023-01-21T03:13:02.064Z,99460.00
2023-01-21T03:18:13.030Z,99460.72
2023-01-21T03:23:22.796Z,99461.69
2023-01-21T03:28:30.809Z,99459.91
2023-01-21T03:33:39.437Z,99458.13
2023-01-21T03:38:50.052Z,99464.16
2023-01-21T03:43:53.156Z,99473.44
2023-01-21T03:49:08.987Z,99475.94
2023-01-21T03:54:12.043Z,99491.47
2023-01-21T03:59:14.876Z,99501.69
2023-01-21T04:04:17.920Z,99501.56
2023-01-21T04:09:22.193Z,99497.31
2023-01-21T04:14:25.384Z,99502.75
2023-01-21T04:19:28.415Z,99515.25
2023-01-21T04:24:33.776Z,99532.66
2023-01-21T04:29:37.595Z,99524.38
2023-01-21T04:34:40.371Z,99526.50
2023-01-21T04:39:43.323Z,99548.22
2023-01-21T04:44:46.371Z,99553.66
2023-01-21T04:49:49.259Z,99564.09
2023-01-21T04:54:52.349Z,99566.97
2023-01-21T04:59:55.333Z,99571.34
2023-01-21T05:04:58.391Z,99564.56
2023-01-21T05:10:01.375Z,99595.31
2023-01-21T05:15:05.249Z,99594.56
2023-01-21T05:20:09.093Z,99603.03
2023-01-21T05:25:12.062Z,99612.63
2023-01-21T05:30:15.285Z,99601.56
2023-01-21T05:35:21.353Z,99604.94
2023-01-21T05:40:24.369Z,99622.47
2023-01-21T05:45:27.317Z,99618.19
2023-01-21T05:50:30.138Z,99626.84
2023-01-21T05:55:33.239Z,99626.28
2023-01-21T06:00:36.373Z,99639.09
2023-01-21T06:05:41.640Z,99645.25
2023-01-21T06:10:45.274Z,99645.97
2023-01-21T06:15:48.230Z,99649.41
2023-01-21T06:20:51.301Z,99643.16
2023-01-21T06:25:54.377Z,99655.97
2023-01-21T06:30:57.811Z,99663.72
2023-01-21T06:36:02.217Z,99670.22
2023-01-21T06:41:05.372Z,99686.41
2023-01-21T06:46:08.145Z,99682.50
2023-01-21T06:51:11.184Z,99685.63
2023-01-21T06:56:14.281Z,99697.84
2023-01-21T07:01:17.121Z,99699.38
2023-01-21T07:06:22.227Z,99716.38
2023-01-21T07:11:25.210Z,99717.72
2023-01-21T07:16:28.358Z,99720.00
2023-01-21T07:21:31.509Z,99713.69
2023-01-21T07:26:38.006Z,99732.41
2023-01-21T07:31:40.997Z,99723.59
2023-01-21T07:36:43.985Z,99738.84
2023-01-21T07:41:47.009Z,99744.56
2023-01-21T07:46:50.231Z,99755.47
2023-01-21T07:51:57.641Z,99770.72
2023-01-21T07:57:00.370Z,99774.56
2023-01-21T08:02:03.516Z,99777.75
2023-01-21T08:07:12.034Z,99786.91
2023-01-21T08:12:16.474Z,99797.88
2023-01-21T08:17:19.570Z,99791.56
2023-01-21T08:22:23.271Z,99794.19
2023-01-21T08:27:26.070Z,99800.16
2023-01-21T08:32:31.868Z,99797.91
2023-01-21T08:37:34.779Z,99805.50
2023-01-21T08:42:37.760Z,99806.81
2023-01-21T08:47:40.863Z,99811.72
2023-01-21T08:52:50.013Z,99814.13
2023-01-21T08:57:56.208Z,99818.88
2023-01-21T09:02:59.904Z,99817.47
2023-01-21T09:08:02.886Z,99827.47
2023-01-21T09:13:08.615Z,99835.06
2023-01-21T09:18:12.047Z,99842.91
2023-01-21T09:23:24.596Z,99840.31
2023-01-21T09:28:27.823Z,99830.66
2023-01-21T09:33:33.588Z,99835.56
2023-01-21T09:38:36.411Z,99841.75
2023-01-21T09:44:02.349Z,99844.59
2023-01-21T09:49:13.432Z,99842.00
2023-01-21T09:54:27.319Z,99845.69
2023-01-21T10:00:01.562Z,99830.19
2023-01-21T10:05:32.971Z,99836.88
2023-01-21T10:11:01.849Z,99835.56
2023-01-21T10:16:25.617Z,99835.91
2023-01-21T10:21:50.638Z,99845.56
2023-01-21T10:26:54.614Z,99853.91
2023-01-21T10:32:07.237Z,99853.78
2023-01-21T10:37:25.200Z,99853.91
2023-01-21T10:42:51.538Z,99851.03
2023-01-21T10:48:15.785Z,99850.56
2023-01-21T10:53:33.034Z,99848.53
2023-01-21T10:58:53.959Z,99853.19
2023-01-21T11:04:04.700Z,99855.34
2023-01-21T11:09:12.977Z,99856.53
2023-01-21T11:14:15.983Z,99864.72
2023-01-21T11:19:30.485Z,99865.09
2023-01-21T11:24:45.231Z,99871.28
2023-01-21T11:29:50.236Z,99858.53
2023-01-21T11:35:02.478Z,99855.09
2023-01-21T11:40:25.286Z,99851.50
2023-01-21T11:45:37.380Z,99852.38
2023-01-21T11:50:40.914Z,99852.72
2023-01-21T11:55:57.369Z,99839.72
2023-01-21T12:01:04.369Z,99849.16
2023-01-21T12:06:08.698Z,99841.88
2023-01-21T12:11:19.063Z,99848.06
2023-01-21T12:16:58.420Z,99836.00
2023-01-21T12:22:39.530Z,99840.75
2023-01-21T12:28:29.714Z,99844.31
2023-01-21T12:33:32.767Z,99849.22
2023-01-21T12:38:45.720Z,99857.44
2023-01-21T12:43:54.594Z,99852.44
2023-01-21T12:49:45.469Z,99864.00
2023-01-21T12:55:07.165Z,99867.81
2023-01-21T13:00:33.172Z,99871.75
2023-01-21T13:05:50.523Z,99878.19
2023-01-21T13:11:22.154Z,99887.22
2023-01-21T13:16:26.565Z,99887.00
2023-01-21T13:22:10.049Z,99895.09
2023-01-21T13:27:41.178Z,99901.91
2023-01-21T13:33:41.350Z,99906.31
2023-01-21T13:39:01.685Z,99910.94
2023-01-21T13:44:30.468Z,99919.50
2023-01-21T13:49:45.271Z,99923.09
2023-01-21T13:55:30.723Z,99916.06
2023-01-21T14:01:00.901Z,99925.56
2023-01-21T14:06:13.675Z,99919.50
2023-01-21T14:11:27.903Z,99931.91
2023-01-21T14:16:55.484Z,99938.22
2023-01-21T14:22:16.685Z,99944.63
2023-01-21T14:27:48.495Z,99956.91
2023-01-21T14:33:02.376Z,99947.84
2023-01-21T14:38:58.657Z,99963.47
2023-01-21T14:44:01.703Z,99967.03
2023-01-21T14:49:09.584Z,99970.13
2023-01-21T14:54:16.069Z,99982.63
2023-01-21T14:59:41.794Z,99985.56
2023-01-21T15:05:22.064Z,99984.13
2023-01-21T15:10:38.956Z,99971.84
2023-01-21T15:16:20.272Z,99985.25
2023-01-21T15:21:42.296Z,99999.75
2023-01-21T15:27:16.083Z,100004.50
2023-01-21T15:32:44.822Z,100000.88
2023-01-21T15:38:11.590Z,100013.25
2023-01-21T15:43:41.942Z,100016.44
2023-01-21T15:49:10.833Z,100020.09
2023-01-21T15:54:38.292Z,100022.00
2023-01-21T16:00:15.608Z,100024.09
2023-01-21T16:05:34.049Z,100023.59
2023-01-21T16:11:01.594Z,100046.19
2023-01-21T16:16:56.845Z,100050.72
2023-01-21T16:22:07.716Z,100055.94
2023-01-21T16:27:32.435Z,100059.50
2023-01-21T16:32:37.234Z,100074.50
2023-01-21T16:37:43.564Z,100074.50
2023-01-21T16:42:47.231Z,100077.31
2023-01-21T16:47:57.452Z,100085.16
2023-01-21T16:53:07.868Z,100081.72
2023-01-21T16:58:29.566Z,100080.75
2023-01-21T17:03:33.408Z,100075.63
2023-01-21T17:08:37.529Z,100076.47
2023-01-21T17:13:48.469Z,100083.50
2023-01-21T17:19:06.013Z,100080.03
2023-01-21T17:24:29.515Z,100092.28
2023-01-21T17:29:34.872Z,100095.63
2023-01-21T17:34:40.069Z,100093.94
2023-01-21T17:40:00.848Z,100092.16
2023-01-21T17:45:05.282Z,100094.91
2023-01-21T17:50:26.787Z,100096.56
2023-01-21T17:55:37.940Z,100107.88
2023-01-21T18:00:46.108Z,100105.38
2023-01-21T18:05:49.211Z,100106.91
2023-01-21T18:10:52.270Z,100112.03
2023-01-21T18:15:55.130Z,100131.09
2023-01-21T18:20:58.845Z,100131.81
2023-01-21T18:26:03.539Z,100143.09
2023-01-21T18:31:07.455Z,100147.31
2023-01-21T18:36:14.908Z,100155.88
2023-01-21T18:41:17.935Z,100152.31
2023-01-21T18:46:20.831Z,100149.50
2023-01-21T18:51:23.661Z,100147.06
2023-01-21T18:56:26.545Z,100146.13
2023-01-21T19:01:29.623Z,100150.63
2023-01-21T19:06:32.788Z,100154.94
2023-01-21T19:11:35.740Z,100153.25
2023-01-21T19:16:41.160Z,100158.25
2023-01-21T19:21:44.479Z,100163.63
2023-01-21T19:26:48.653Z,100178.34
2023-01-21T19:31:51.569Z,100191.56
2023-01-21T19:36:54.635Z,100201.06
2023-01-21T19:42:08.002Z,100209.69
2023-01-21T19:47:27.849Z,100212.28
2023-01-21T19:52:34.295Z,100207.06
2023-01-21T19:57:38.367Z,100209.75
2023-01-21T20:02:41.375Z,100201.31
2023-01-21T20:07:46.697Z,100196.06
2023-01-21T20:12:51.069Z,100202.34
2023-01-21T20:17:55.418Z,100198.28
2023-01-21T20:23:00.007Z,100200.06
2023-01-21T20:28:14.960Z,100204.47
2023-01-21T20:33:21.453Z,100206.22
2023-01-21T20:38:31.988Z,100205.50
2023-01-21T20:43:34.955Z,100209.78
2023-01-21T20:48:43.031Z,100210.72
2023-01-21T20:53:45.835Z,100214.91
2023-01-21T20:58:49.285Z,100225.16
2023-01-21T21:03:54.017Z,100214.81
2023-01-21T21:08:58.128Z,100220.56
2023-01-21T21:14:02.143Z,100221.28
2023-01-21T21:19:05.087Z,100223.69
2023-01-21T21:24:08.064Z,100224.44
2023-01-21T21:29:14.333Z,100231.22
2023-01-21T21:34:18.215Z,100223.25
2023-01-21T21:39:22.206Z,100228.28
2023-01-21T21:44:25.198Z,100221.16
2023-01-21T21:49:29.752Z,100219.28
2023-01-21T21:54:33.281Z,100221.78
2023-01-21T21:59:36.377Z,100239.88
2023-01-21T22:04:39.287Z,100244.09
2023-01-21T22:09:42.232Z,100231.72
2023-01-21T22:14:45.154Z,100233.38
2023-01-21T22:19:47.985Z,100229.84
2023-01-21T22:24:53.567Z,100221.88
2023-01-21T22:29:59.207Z,100229.50
2023-01-21T22:35:03.029Z,100218.19
2023-01-21T22:40:07.072Z,100221.66
2023-01-21T22:45:10.711Z,100224.06
2023-01-21T22:50:14.462Z,100219.66
2023-01-21T22:55:17.509Z,100223.84
2023-01-21T23:00:38.900Z,100208.97
2023-01-21T23:05:42.480Z,100202.06
2023-01-21T23:10:47.014Z,100194.00
2023-01-21T23:15:49.915Z,100193.78
2023-01-21T23:20:53.215Z,100201.63
2023-01-21T23:25:56.273Z,100212.72
2023-01-21T23:31:08.796Z,100216.91
2023-01-21T23:36:13.672Z,100215.22
2023-01-21T23:41:19.746Z,100217.72
2023-01-21T23:46:22.911Z,100231.56
2023-01-21T23:51:25.987Z,100229.66
2023-01-21T23:56:29.808Z,100239.09
